Independence, Ca., Owens Valley School Weather observations

 Day   Time    Ave.   Ave.  Ave.  Vector  Max.   Total    Solar  
  of    of     Air    Rel.  Wind   Wind   Wind  Precip.   Rad.   
Year   Day     Temp.  Hum.  Speed  Dir.   Gust                   
2014   (PST)    F      %     mph   deg.    mph    in.     W/m2  
----------------------------------------------------------------
 261    5:10   74.4    20    3.7   165     9.7    0.00       2
 261    5:20   75.1    20    4.5   189     9.2    0.00       4
 261    5:30   74.5    20    5.1   192    11.5    0.00       8
 261    5:40   74.5    20    5.1   198    10.7    0.00      10
 261    5:50   74.5    19    4.3   195    13.4    0.00      42
 261    6:00   77.0    17    4.4   190    10.9    0.00     123
 261    6:10   78.3    16    3.6   165     9.0    0.00     153
 261    6:20   79.3    15    3.8   162     8.1    0.00     185
 261    6:30   79.5    16    3.3   134    10.3    0.00     217
 261    6:40   79.5    18    1.6    81     5.5    0.00     249
 261    6:50   79.3    19    2.7    91     6.8    0.00     282
 261    7:00   79.6    19    2.6    84     8.2    0.00     315
 261    7:10   80.3    20    1.9    73     4.9    0.00     348
 261    7:20   81.1    20    1.2    73     5.1    0.00     379
 261    7:30   82.1    17    1.7    93     6.0    0.00     410
 261    7:40   83.0    16    2.4   111     6.2    0.00     440
 261    7:50   83.7    14    4.6   122    10.9    0.00     469
 261    8:00   83.7    13    5.6   150    13.3    0.00     498
 261    8:10   84.5    13    6.4   142    14.9    0.00     526
 261    8:20   84.1    12    8.1   150    14.6    0.00     553
 261    8:30   85.0    12    7.3   149    14.0    0.00     579
 261    8:40   85.0    12    9.0   147    15.7    0.00     603
 261    8:50   85.7    11    7.2   151    13.5    0.00     626
 261    9:00   86.5    11    6.8   156    14.2    0.00     649
 261    9:10   86.8    10    7.4   138    12.9    0.00     672
 261    9:20   87.3    10    7.4   146    14.4    0.00     692
 261    9:30   87.5    10    7.3   146    13.8    0.00     711
 261    9:40   88.6     9    5.2   144    10.6    0.00     729
 261    9:50   89.5     9    6.2   155    13.9    0.00     744
 261   10:00   89.7     9    5.9   160    12.0    0.00     757
 261   10:10   89.7     9    6.0   146    11.9    0.00     770
 261   10:20   90.7     8    4.6   160     9.9    0.00     780
 261   10:30   91.0     8    4.3   163    12.0    0.00     789
 261   10:40   91.1     8    7.6   134    15.6    0.00     797
 261   10:50   90.7     8    6.0   145    11.4    0.00     802
 261   11:00   91.4     9    7.6   145    14.8    0.00     804
 261   11:10   91.2     9    7.2   136    16.2    0.00     807
 261   11:20   91.9     9    7.4   154    17.4    0.00     807
 261   11:30   91.3    10    9.7   147    18.8    0.00     803
 261   11:40   90.9    10   10.0   153    19.8    0.00     798
 261   11:50   91.0    10    9.1   136    22.3    0.00     794
 261   12:00   90.8    10    9.9   132    17.3    0.00     789
 261   12:10   91.3    10   10.3   158    19.3    0.00     781
 261   12:20   91.6    10    8.8   147    19.3    0.00     770
 261   12:30   92.6    10    8.2   147    16.7    0.00     759
 261   12:40   91.7    10   10.2   150    18.8    0.00     748
 261   12:50   92.4    10    7.6   164    16.5    0.00     734
 261   13:00   92.9    10    8.3   151    16.5    0.00     720
 261   13:10   92.4    11   10.0   141    17.8    0.00     701
 261   13:20   92.2    11   11.2   144    22.5    0.00     683
 261   13:30   92.7    11   10.4   150    20.2    0.00     664
 261   13:40   92.8    11   10.5   145    20.1    0.00     644
 261   13:50   92.9    11   10.4   141    20.8    0.00     622
 261   14:00   92.6    11   10.8   152    20.4    0.00     598
 261   14:10   92.9    11    9.9   152    18.5    0.00     574
 261   14:20   92.9    11   10.1   147    22.9    0.00     549
 261   14:30   92.7    11   11.2   147    21.6    0.00     522
 261   14:40   92.7    10   11.2   149    19.3    0.00     496
 261   14:50   92.9    10   10.9   149    20.2    0.00     468
 261   15:00   92.3    11   11.0   145    21.0    0.00     440
 261   15:10   91.9    10   12.3   148    21.9    0.00     410
 261   15:20   91.5    11   12.2   149    20.8    0.00     378
 261   15:30   91.3    10   11.0   146    21.2    0.00     348
 261   15:40   91.3    10   11.3   150    20.7    0.00     316
 261   15:50   90.8    11   12.6   148    22.0    0.00     284
 261   16:00   90.2    11   13.1   147    21.0    0.00     253
 261   16:10   89.7    12   13.3   149    21.7    0.00     221
 261   16:20   89.2    12   13.0   150    21.0    0.00     190
 261   16:30   88.9    12   12.1   148    23.6    0.00     159
 261   16:40   87.5    13   11.8   151    21.8    0.00      33
 261   16:50   86.4    14   12.1   152    21.0    0.00      16
 261   17:00   85.8    14    9.9   153    21.2    0.00      14
 261   17:10   85.2    14    9.2   161    17.2    0.00      11
 261   17:20   84.6    15    7.7   164    15.5    0.00       8
 261   17:30   83.9    18    9.3   160    21.0    0.00       5
 261   17:40   83.1    20    9.3   154    18.5    0.00       2
 261   17:50   82.6    20    9.9   154    19.3    0.00       1
 261   18:00   82.0    21    8.0   157    16.3    0.00       0
 261   18:10   81.5    22    7.6   161    16.1    0.00       0
 261   18:20   81.1    22    6.2   163    12.5    0.00       0
 261   18:30   80.4    22    4.6   164    10.1    0.00       0
 261   18:40   80.0    22    5.2   162    12.2    0.00       0
 261   18:50   79.9    22    5.2   164    14.5    0.00       0
 261   19:00   79.5    22    4.7   164    10.5    0.00       0
 261   19:10   79.0    22    5.6   158    11.8    0.00       0
 261   19:20   78.7    21    4.9   160    11.1    0.00       0
 261   19:30   78.4    21    5.3   163    13.3    0.00       0
 261   19:40   77.9    21    4.5   164     9.7    0.00       0
 261   19:50   77.5    22    4.8   161    10.3    0.00       0
 261   20:00   77.3    22    5.7   163    13.3    0.00       0
 261   20:10   77.3    22    5.5   169    12.5    0.00       0
 261   20:20   76.8    22    4.6   164     9.2    0.00       0
 261   20:30   75.8    24    2.9   103     5.5    0.00       0
 261   20:40   73.2    28    0.8    87     7.3    0.00       0
 261   20:50   72.9    27    2.1   145     5.4    0.00       0
 261   21:00   73.0    28    1.1   121     4.9    0.00       0
 261   21:10   72.6    28    0.5    77     3.3    0.00       0
 261   21:20   72.0    29    0.0   104     0.8    0.00       0
 261   21:30   70.8    32    0.0   244     0.8    0.00       0
 261   21:40   69.7    32    0.1   266     1.7    0.00       0
 261   21:50   69.5    31    0.3   243     3.5    0.00       0
 261   22:00   69.3    32    0.0     0     0.0    0.00       0
 261   22:10   68.8    32    0.0     0     0.0    0.00       0
 261   22:20   68.0    33    0.2   153     2.9    0.00       0
 261   22:30   67.6    32    0.0     0     0.0    0.00       0
 261   22:40   67.9    32    0.0     0     0.0    0.00       0
 261   22:50   67.1    34    0.0     0     0.0    0.00       0
 261   23:00   67.0    34    0.0     0     0.0    0.00       0
 261   23:10   65.7    38    0.0   338     0.5    0.00       0
 261   23:20   65.0    39    0.1   276     3.5    0.00       0
 261   23:30   65.2    35    1.6   278     4.3    0.00       0
 261   23:40   66.1    34    2.7   311     5.6    0.00       0
 261   23:50   66.3    35    2.2   327     6.0    0.00       0
 262    0:00   66.2    36    1.4   310     5.9    0.00       0
 262    0:10   67.0    35    2.2   314     4.7    0.00       0
 262    0:20   66.4    37    0.0     0     0.0    0.00       0
 262    0:30   66.4    36    0.0     0     0.0    0.00       0
 262    0:40   65.9    38    0.3   248     2.8    0.00       0
 262    0:50   65.4    39    0.0     0     0.0    0.00       0
 262    1:00   65.4    38    0.0     0     0.0    0.00       0
 262    1:10   65.6    37    2.4   254     3.6    0.00       0
 262    1:20   65.2    37    0.5   262     3.0    0.00       0
 262    1:30   65.1    37    0.4   239     2.3    0.00       0
 262    1:40   65.0    37    0.8   280     4.6    0.00       0
 262    1:50   63.0    41    1.2   334     6.6    0.00       0
 262    2:00   62.5    42    1.2   319     3.5    0.00       0
 262    2:10   62.9    42    0.7   268     3.0    0.00       0
 262    2:20   63.1    41    1.8   261     4.6    0.00       0
 262    2:30   63.3    41    0.3   243     1.9    0.00       0
 262    2:40   63.6    40    1.2   232     3.3    0.00       0
 262    2:50   63.7    41    0.8    24     5.5    0.00       0
 262    3:00   62.5    44    0.0     0     0.0    0.00       0
 262    3:10   62.7    43    0.0     0     0.0    0.00       0
 262    3:20   63.0    43    0.0   233     0.8    0.00       0
 262    3:30   62.7    44    0.4   282     4.6    0.00       0
 262    3:40   65.3    40    1.5   307     4.3    0.00       0
 262    3:50   64.9    41    1.2   353     3.6    0.00       0
 262    4:00   64.5    42    0.6   311     4.5    0.00       0
 262    4:10   64.7    42    0.4   296     3.0    0.00       0
 262    4:20   64.9    42    0.6   322     4.0    0.00       0
 262    4:30   63.9    43    0.8   302     4.3    0.00       0
 262    4:40   65.1    41    2.6   275     7.8    0.00       0
 262    4:50   66.2    39    2.2   291     5.3    0.00       0
 262    5:00   66.3    39    3.5   312     6.8    0.00       0

Return to Independence, Ca. graphs page.


Western Regional Climate Center,wrcc@dri.edu